sensor_id;sensor_type;location;lat;lon;timestamp;temperature;humidity
34646;DHT22;20857;47.808;12.482;2024-02-21T00:00:45;3.30;99.90
34646;DHT22;20857;47.808;12.482;2024-02-21T00:03:11;3.30;99.90
34646;DHT22;20857;47.808;12.482;2024-02-21T00:05:37;3.20;99.90
34646;DHT22;20857;47.808;12.482;2024-02-21T00:08:03;3.20;99.90
34646;DHT22;20857;47.808;12.482;2024-02-21T00:10:28;3.20;99.90
34646;DHT22;20857;47.808;12.482;2024-02-21T00:12:54;3.10;99.90
34646;DHT22;20857;47.808;12.482;2024-02-21T00:15:20;3.20;99.90
34646;DHT22;20857;47.808;12.482;2024-02-21T00:17:46;3.20;99.90
34646;DHT22;20857;47.808;12.482;2024-02-21T00:20:12;3.20;99.90
34646;DHT22;20857;47.808;12.482;2024-02-21T00:22:38;3.20;99.90
34646;DHT22;20857;47.808;12.482;2024-02-21T00:25:03;3.20;99.90
34646;DHT22;20857;47.808;12.482;2024-02-21T00:27:29;3.30;99.90
34646;DHT22;20857;47.808;12.482;2024-02-21T00:29:55;3.30;99.90
34646;DHT22;20857;47.808;12.482;2024-02-21T00:32:20;3.30;99.90
34646;DHT22;20857;47.808;12.482;2024-02-21T00:34:46;3.30;99.90
34646;DHT22;20857;47.808;12.482;2024-02-21T00:37:12;3.40;99.90
34646;DHT22;20857;47.808;12.482;2024-02-21T00:39:37;3.30;99.90
34646;DHT22;20857;47.808;12.482;2024-02-21T00:42:03;3.30;99.90
34646;DHT22;20857;47.808;12.482;2024-02-21T00:44:29;3.30;99.90
34646;DHT22;20857;47.808;12.482;2024-02-21T00:46:54;3.40;99.90
34646;DHT22;20857;47.808;12.482;2024-02-21T00:49:20;3.40;99.90
34646;DHT22;20857;47.808;12.482;2024-02-21T00:51:47;3.40;99.90
34646;DHT22;20857;47.808;12.482;2024-02-21T00:54:13;3.40;99.90
34646;DHT22;20857;47.808;12.482;2024-02-21T00:56:38;3.50;99.90
34646;DHT22;20857;47.808;12.482;2024-02-21T00:59:04;3.50;99.90
34646;DHT22;20857;47.808;12.482;2024-02-21T01:01:29;3.50;99.90
34646;DHT22;20857;47.808;12.482;2024-02-21T01:03:55;3.60;99.90
34646;DHT22;20857;47.808;12.482;2024-02-21T01:06:20;3.60;99.90
34646;DHT22;20857;47.808;12.482;2024-02-21T01:08:47;3.60;99.90
34646;DHT22;20857;47.808;12.482;2024-02-21T01:11:13;3.70;99.90
34646;DHT22;20857;47.808;12.482;2024-02-21T01:13:39;3.70;99.90
34646;DHT22;20857;47.808;12.482;2024-02-21T01:16:05;3.80;99.90
34646;DHT22;20857;47.808;12.482;2024-02-21T01:18:33;3.80;99.90
34646;DHT22;20857;47.808;12.482;2024-02-21T01:20:58;3.80;99.90
34646;DHT22;20857;47.808;12.482;2024-02-21T01:23:24;3.90;99.90
34646;DHT22;20857;47.808;12.482;2024-02-21T01:25:50;3.90;99.90
34646;DHT22;20857;47.808;12.482;2024-02-21T01:28:16;3.80;99.90
34646;DHT22;20857;47.808;12.482;2024-02-21T01:30:42;3.90;99.90
34646;DHT22;20857;47.808;12.482;2024-02-21T01:33:07;4.00;99.90
34646;DHT22;20857;47.808;12.482;2024-02-21T01:35:34;4.10;99.90
34646;DHT22;20857;47.808;12.482;2024-02-21T01:38:00;4.10;99.90
34646;DHT22;20857;47.808;12.482;2024-02-21T01:40:25;4.10;99.90
34646;DHT22;20857;47.808;12.482;2024-02-21T01:42:52;4.20;99.90
34646;DHT22;20857;47.808;12.482;2024-02-21T01:45:19;4.20;99.90
34646;DHT22;20857;47.808;12.482;2024-02-21T01:47:45;4.10;99.90
34646;DHT22;20857;47.808;12.482;2024-02-21T01:50:12;4.10;99.90
34646;DHT22;20857;47.808;12.482;2024-02-21T01:52:38;4.10;99.90
34646;DHT22;20857;47.808;12.482;2024-02-21T01:55:05;4.10;99.90
34646;DHT22;20857;47.808;12.482;2024-02-21T01:57:31;4.20;99.90
34646;DHT22;20857;47.808;12.482;2024-02-21T01:59:56;4.10;99.90
34646;DHT22;20857;47.808;12.482;2024-02-21T02:02:22;4.10;99.90
34646;DHT22;20857;47.808;12.482;2024-02-21T02:04:49;4.10;99.90
34646;DHT22;20857;47.808;12.482;2024-02-21T02:07:14;4.00;99.90
34646;DHT22;20857;47.808;12.482;2024-02-21T02:09:40;4.00;99.90
34646;DHT22;20857;47.808;12.482;2024-02-21T02:12:06;4.00;99.90
34646;DHT22;20857;47.808;12.482;2024-02-21T02:14:32;4.10;99.90
34646;DHT22;20857;47.808;12.482;2024-02-21T02:16:57;4.10;99.90
34646;DHT22;20857;47.808;12.482;2024-02-21T02:19:23;4.20;99.90
34646;DHT22;20857;47.808;12.482;2024-02-21T02:21:51;4.20;99.90
34646;DHT22;20857;47.808;12.482;2024-02-21T02:24:22;4.20;99.90
34646;DHT22;20857;47.808;12.482;2024-02-21T02:26:49;4.20;99.90
34646;DHT22;20857;47.808;12.482;2024-02-21T02:29:14;4.30;99.90
34646;DHT22;20857;47.808;12.482;2024-02-21T02:31:40;4.20;99.90
34646;DHT22;20857;47.808;12.482;2024-02-21T02:34:06;4.20;99.90
34646;DHT22;20857;47.808;12.482;2024-02-21T02:36:32;4.20;99.90
34646;DHT22;20857;47.808;12.482;2024-02-21T02:38:58;4.20;99.90
34646;DHT22;20857;47.808;12.482;2024-02-21T02:41:24;4.20;99.90
34646;DHT22;20857;47.808;12.482;2024-02-21T02:43:50;4.20;99.90
34646;DHT22;20857;47.808;12.482;2024-02-21T02:46:15;4.20;99.90
34646;DHT22;20857;47.808;12.482;2024-02-21T02:48:41;4.20;99.90
34646;DHT22;20857;47.808;12.482;2024-02-21T02:51:07;4.20;99.90
34646;DHT22;20857;47.808;12.482;2024-02-21T02:53:32;4.10;99.90
34646;DHT22;20857;47.808;12.482;2024-02-21T02:55:58;4.10;99.90
34646;DHT22;20857;47.808;12.482;2024-02-21T02:58:23;4.10;99.90
34646;DHT22;20857;47.808;12.482;2024-02-21T03:00:49;4.10;99.90
34646;DHT22;20857;47.808;12.482;2024-02-21T03:03:15;4.10;99.90
34646;DHT22;20857;47.808;12.482;2024-02-21T03:05:40;4.10;99.90
34646;DHT22;20857;47.808;12.482;2024-02-21T03:08:06;4.10;99.90
34646;DHT22;20857;47.808;12.482;2024-02-21T03:10:33;4.10;99.90
34646;DHT22;20857;47.808;12.482;2024-02-21T03:12:58;4.10;99.90
34646;DHT22;20857;47.808;12.482;2024-02-21T03:15:24;4.10;99.90
34646;DHT22;20857;47.808;12.482;2024-02-21T03:17:50;4.10;99.90
34646;DHT22;20857;47.808;12.482;2024-02-21T03:20:15;4.20;99.90
34646;DHT22;20857;47.808;12.482;2024-02-21T03:22:41;4.20;99.90
34646;DHT22;20857;47.808;12.482;2024-02-21T03:25:08;4.20;99.90
34646;DHT22;20857;47.808;12.482;2024-02-21T03:27:34;4.20;99.90
34646;DHT22;20857;47.808;12.482;2024-02-21T03:29:59;4.10;99.90
34646;DHT22;20857;47.808;12.482;2024-02-21T03:32:25;4.10;99.90
34646;DHT22;20857;47.808;12.482;2024-02-21T03:34:51;4.10;99.90
34646;DHT22;20857;47.808;12.482;2024-02-21T03:37:16;4.10;99.90
34646;DHT22;20857;47.808;12.482;2024-02-21T03:39:42;4.10;99.90
34646;DHT22;20857;47.808;12.482;2024-02-21T03:42:08;4.00;99.90
34646;DHT22;20857;47.808;12.482;2024-02-21T03:44:33;4.00;99.90
34646;DHT22;20857;47.808;12.482;2024-02-21T03:46:59;4.00;99.90
34646;DHT22;20857;47.808;12.482;2024-02-21T03:49:25;4.00;99.90
34646;DHT22;20857;47.808;12.482;2024-02-21T03:51:51;4.00;99.90
34646;DHT22;20857;47.808;12.482;2024-02-21T03:54:17;4.00;99.90
34646;DHT22;20857;47.808;12.482;2024-02-21T03:56:42;3.90;99.90
34646;DHT22;20857;47.808;12.482;2024-02-21T03:59:08;3.90;99.90
34646;DHT22;20857;47.808;12.482;2024-02-21T04:01:36;3.90;99.90
34646;DHT22;20857;47.808;12.482;2024-02-21T04:04:02;3.80;99.90
34646;DHT22;20857;47.808;12.482;2024-02-21T04:06:28;3.80;99.90
34646;DHT22;20857;47.808;12.482;2024-02-21T04:08:53;3.70;99.90
34646;DHT22;20857;47.808;12.482;2024-02-21T04:11:19;3.70;99.90
34646;DHT22;20857;47.808;12.482;2024-02-21T04:13:45;3.60;99.90
34646;DHT22;20857;47.808;12.482;2024-02-21T04:19:35;3.60;99.90
34646;DHT22;20857;47.808;12.482;2024-02-21T04:22:01;3.60;99.90
34646;DHT22;20857;47.808;12.482;2024-02-21T04:24:27;3.60;99.90
34646;DHT22;20857;47.808;12.482;2024-02-21T04:26:52;3.70;99.90
34646;DHT22;20857;47.808;12.482;2024-02-21T04:29:18;3.70;99.90
34646;DHT22;20857;47.808;12.482;2024-02-21T04:31:43;3.70;99.90
34646;DHT22;20857;47.808;12.482;2024-02-21T04:34:09;3.80;99.90
34646;DHT22;20857;47.808;12.482;2024-02-21T04:36:35;3.70;99.90
34646;DHT22;20857;47.808;12.482;2024-02-21T04:39:00;3.80;99.90
34646;DHT22;20857;47.808;12.482;2024-02-21T04:43:55;3.80;99.90
34646;DHT22;20857;47.808;12.482;2024-02-21T04:46:20;3.80;99.90
34646;DHT22;20857;47.808;12.482;2024-02-21T04:48:46;3.80;99.90
34646;DHT22;20857;47.808;12.482;2024-02-21T04:51:12;3.80;99.90
34646;DHT22;20857;47.808;12.482;2024-02-21T04:53:39;3.80;99.90
34646;DHT22;20857;47.808;12.482;2024-02-21T04:56:05;3.80;99.90
34646;DHT22;20857;47.808;12.482;2024-02-21T04:58:30;3.80;99.90
34646;DHT22;20857;47.808;12.482;2024-02-21T05:00:56;3.80;99.90
34646;DHT22;20857;47.808;12.482;2024-02-21T05:03:22;3.80;99.90
34646;DHT22;20857;47.808;12.482;2024-02-21T05:05:47;3.70;99.90
34646;DHT22;20857;47.808;12.482;2024-02-21T05:08:13;3.70;99.90
34646;DHT22;20857;47.808;12.482;2024-02-21T05:10:38;3.80;99.90
34646;DHT22;20857;47.808;12.482;2024-02-21T05:13:04;3.70;99.90
34646;DHT22;20857;47.808;12.482;2024-02-21T05:15:30;3.70;99.90
34646;DHT22;20857;47.808;12.482;2024-02-21T05:17:56;3.70;99.90
34646;DHT22;20857;47.808;12.482;2024-02-21T05:20:22;3.70;99.90
34646;DHT22;20857;47.808;12.482;2024-02-21T05:22:47;3.70;99.90
34646;DHT22;20857;47.808;12.482;2024-02-21T05:25:13;3.70;99.90
34646;DHT22;20857;47.808;12.482;2024-02-21T05:27:39;3.80;99.90
34646;DHT22;20857;47.808;12.482;2024-02-21T05:30:05;3.70;99.90
34646;DHT22;20857;47.808;12.482;2024-02-21T05:32:32;3.80;99.90
34646;DHT22;20857;47.808;12.482;2024-02-21T05:34:57;3.80;99.90
34646;DHT22;20857;47.808;12.482;2024-02-21T05:37:23;3.70;99.90
34646;DHT22;20857;47.808;12.482;2024-02-21T05:39:49;3.80;99.90
34646;DHT22;20857;47.808;12.482;2024-02-21T05:42:14;3.90;99.90
34646;DHT22;20857;47.808;12.482;2024-02-21T05:44:40;3.80;99.90
34646;DHT22;20857;47.808;12.482;2024-02-21T05:47:06;3.80;99.90
34646;DHT22;20857;47.808;12.482;2024-02-21T05:49:35;3.80;99.90
34646;DHT22;20857;47.808;12.482;2024-02-21T05:52:01;3.80;99.90
34646;DHT22;20857;47.808;12.482;2024-02-21T05:54:26;3.70;99.90
34646;DHT22;20857;47.808;12.482;2024-02-21T05:56:52;3.70;99.90
34646;DHT22;20857;47.808;12.482;2024-02-21T05:59:18;3.70;99.90
34646;DHT22;20857;47.808;12.482;2024-02-21T06:01:44;3.70;99.90
34646;DHT22;20857;47.808;12.482;2024-02-21T06:04:09;3.70;99.90
34646;DHT22;20857;47.808;12.482;2024-02-21T06:06:35;3.70;99.90
34646;DHT22;20857;47.808;12.482;2024-02-21T06:09:00;3.70;99.90
34646;DHT22;20857;47.808;12.482;2024-02-21T06:11:28;3.80;99.90
34646;DHT22;20857;47.808;12.482;2024-02-21T06:13:54;3.90;99.90
34646;DHT22;20857;47.808;12.482;2024-02-21T06:16:19;3.90;99.90
34646;DHT22;20857;47.808;12.482;2024-02-21T06:18:45;4.00;99.90
34646;DHT22;20857;47.808;12.482;2024-02-21T06:21:10;4.00;99.90
34646;DHT22;20857;47.808;12.482;2024-02-21T06:23:37;4.00;99.90
34646;DHT22;20857;47.808;12.482;2024-02-21T06:26:03;4.00;99.90
34646;DHT22;20857;47.808;12.482;2024-02-21T06:28:29;3.90;99.90
34646;DHT22;20857;47.808;12.482;2024-02-21T06:30:54;4.00;99.90
34646;DHT22;20857;47.808;12.482;2024-02-21T06:33:20;4.10;99.90
34646;DHT22;20857;47.808;12.482;2024-02-21T06:35:50;4.10;99.90
34646;DHT22;20857;47.808;12.482;2024-02-21T06:38:18;4.20;99.90
34646;DHT22;20857;47.808;12.482;2024-02-21T06:40:44;4.20;99.90
34646;DHT22;20857;47.808;12.482;2024-02-21T06:43:15;4.30;99.90
34646;DHT22;20857;47.808;12.482;2024-02-21T06:45:41;4.30;99.90
34646;DHT22;20857;47.808;12.482;2024-02-21T06:48:06;4.40;99.90
34646;DHT22;20857;47.808;12.482;2024-02-21T06:50:33;4.50;99.90
34646;DHT22;20857;47.808;12.482;2024-02-21T06:52:58;4.60;99.90
34646;DHT22;20857;47.808;12.482;2024-02-21T06:55:24;4.70;99.90
34646;DHT22;20857;47.808;12.482;2024-02-21T06:57:49;4.80;99.90
34646;DHT22;20857;47.808;12.482;2024-02-21T07:00:15;4.90;99.90
34646;DHT22;20857;47.808;12.482;2024-02-21T07:02:41;5.00;99.90
34646;DHT22;20857;47.808;12.482;2024-02-21T07:05:07;5.00;99.90
34646;DHT22;20857;47.808;12.482;2024-02-21T07:07:33;5.00;99.90
34646;DHT22;20857;47.808;12.482;2024-02-21T07:10:00;4.90;99.90
34646;DHT22;20857;47.808;12.482;2024-02-21T07:12:26;4.90;99.90
34646;DHT22;20857;47.808;12.482;2024-02-21T07:14:51;4.80;99.90
34646;DHT22;20857;47.808;12.482;2024-02-21T07:17:17;4.90;99.90
34646;DHT22;20857;47.808;12.482;2024-02-21T07:19:43;4.80;99.90
34646;DHT22;20857;47.808;12.482;2024-02-21T07:22:08;4.80;99.90
34646;DHT22;20857;47.808;12.482;2024-02-21T07:24:34;4.60;99.90
34646;DHT22;20857;47.808;12.482;2024-02-21T07:26:59;4.60;99.90
34646;DHT22;20857;47.808;12.482;2024-02-21T07:29:30;4.50;99.90
34646;DHT22;20857;47.808;12.482;2024-02-21T07:31:56;4.50;99.90
34646;DHT22;20857;47.808;12.482;2024-02-21T07:34:21;4.50;99.90
34646;DHT22;20857;47.808;12.482;2024-02-21T07:36:47;4.60;99.90
34646;DHT22;20857;47.808;12.482;2024-02-21T07:39:12;4.60;99.90
34646;DHT22;20857;47.808;12.482;2024-02-21T07:41:38;4.80;99.90
34646;DHT22;20857;47.808;12.482;2024-02-21T07:44:04;5.00;99.90
34646;DHT22;20857;47.808;12.482;2024-02-21T07:46:30;5.20;99.90
34646;DHT22;20857;47.808;12.482;2024-02-21T07:48:56;5.50;99.90
34646;DHT22;20857;47.808;12.482;2024-02-21T07:51:21;5.80;99.90
34646;DHT22;20857;47.808;12.482;2024-02-21T07:53:47;6.00;99.90
34646;DHT22;20857;47.808;12.482;2024-02-21T07:56:15;6.20;99.90
34646;DHT22;20857;47.808;12.482;2024-02-21T07:58:43;6.30;99.90
34646;DHT22;20857;47.808;12.482;2024-02-21T08:01:11;6.30;99.90
34646;DHT22;20857;47.808;12.482;2024-02-21T08:03:36;6.40;99.90
34646;DHT22;20857;47.808;12.482;2024-02-21T08:06:03;6.40;99.90
34646;DHT22;20857;47.808;12.482;2024-02-21T08:08:29;6.50;99.90
34646;DHT22;20857;47.808;12.482;2024-02-21T08:10:54;6.50;99.90
34646;DHT22;20857;47.808;12.482;2024-02-21T08:13:20;6.50;99.90
34646;DHT22;20857;47.808;12.482;2024-02-21T08:15:46;6.70;99.90
34646;DHT22;20857;47.808;12.482;2024-02-21T08:18:11;6.60;99.90
34646;DHT22;20857;47.808;12.482;2024-02-21T08:20:37;6.60;99.90
34646;DHT22;20857;47.808;12.482;2024-02-21T08:23:03;6.60;99.90
34646;DHT22;20857;47.808;12.482;2024-02-21T08:25:28;6.70;99.90
34646;DHT22;20857;47.808;12.482;2024-02-21T08:27:57;6.70;99.90
34646;DHT22;20857;47.808;12.482;2024-02-21T08:30:23;6.70;99.90
34646;DHT22;20857;47.808;12.482;2024-02-21T08:32:49;6.80;99.90
34646;DHT22;20857;47.808;12.482;2024-02-21T08:35:15;6.90;99.90
34646;DHT22;20857;47.808;12.482;2024-02-21T08:37:40;7.00;99.90
34646;DHT22;20857;47.808;12.482;2024-02-21T08:40:08;7.10;99.90
34646;DHT22;20857;47.808;12.482;2024-02-21T08:42:35;7.20;99.90
34646;DHT22;20857;47.808;12.482;2024-02-21T08:45:02;7.20;99.90
34646;DHT22;20857;47.808;12.482;2024-02-21T08:47:28;7.20;99.90
34646;DHT22;20857;47.808;12.482;2024-02-21T08:49:53;7.10;99.90
34646;DHT22;20857;47.808;12.482;2024-02-21T08:52:19;7.00;99.90
34646;DHT22;20857;47.808;12.482;2024-02-21T08:54:45;7.00;99.90
34646;DHT22;20857;47.808;12.482;2024-02-21T08:57:10;6.90;99.90
34646;DHT22;20857;47.808;12.482;2024-02-21T08:59:36;7.00;99.90
34646;DHT22;20857;47.808;12.482;2024-02-21T09:02:02;7.00;99.90
34646;DHT22;20857;47.808;12.482;2024-02-21T09:04:29;7.20;99.90
34646;DHT22;20857;47.808;12.482;2024-02-21T09:06:54;7.40;99.90
34646;DHT22;20857;47.808;12.482;2024-02-21T09:09:20;7.60;99.90
34646;DHT22;20857;47.808;12.482;2024-02-21T09:11:45;7.80;99.90
34646;DHT22;20857;47.808;12.482;2024-02-21T09:14:11;8.00;99.90
34646;DHT22;20857;47.808;12.482;2024-02-21T09:16:39;8.20;99.90
34646;DHT22;20857;47.808;12.482;2024-02-21T09:19:06;8.30;99.90
34646;DHT22;20857;47.808;12.482;2024-02-21T09:21:32;8.40;99.90
34646;DHT22;20857;47.808;12.482;2024-02-21T09:23:57;8.60;99.90
34646;DHT22;20857;47.808;12.482;2024-02-21T09:26:23;8.50;99.90
34646;DHT22;20857;47.808;12.482;2024-02-21T09:28:49;8.40;99.90
34646;DHT22;20857;47.808;12.482;2024-02-21T09:31:14;8.50;99.90
34646;DHT22;20857;47.808;12.482;2024-02-21T09:33:40;8.60;99.90
34646;DHT22;20857;47.808;12.482;2024-02-21T09:36:06;8.80;99.90
34646;DHT22;20857;47.808;12.482;2024-02-21T09:38:32;8.90;99.90
34646;DHT22;20857;47.808;12.482;2024-02-21T09:41:19;9.00;99.90
34646;DHT22;20857;47.808;12.482;2024-02-21T09:43:46;9.00;99.90
34646;DHT22;20857;47.808;12.482;2024-02-21T09:46:17;8.90;99.90
34646;DHT22;20857;47.808;12.482;2024-02-21T09:51:53;9.10;99.90
34646;DHT22;20857;47.808;12.482;2024-02-21T09:54:19;9.10;99.90
34646;DHT22;20857;47.808;12.482;2024-02-21T09:56:46;9.30;99.90
34646;DHT22;20857;47.808;12.482;2024-02-21T09:59:15;9.40;99.90
34646;DHT22;20857;47.808;12.482;2024-02-21T10:01:42;9.50;99.90
34646;DHT22;20857;47.808;12.482;2024-02-21T10:04:09;9.60;99.90
34646;DHT22;20857;47.808;12.482;2024-02-21T10:06:35;9.50;99.90
34646;DHT22;20857;47.808;12.482;2024-02-21T10:09:03;9.70;99.90
34646;DHT22;20857;47.808;12.482;2024-02-21T10:11:29;9.60;99.90
34646;DHT22;20857;47.808;12.482;2024-02-21T10:14:06;9.70;99.90
34646;DHT22;20857;47.808;12.482;2024-02-21T10:16:33;9.80;99.90
34646;DHT22;20857;47.808;12.482;2024-02-21T10:18:59;9.90;99.90
34646;DHT22;20857;47.808;12.482;2024-02-21T10:21:25;9.70;99.90
34646;DHT22;20857;47.808;12.482;2024-02-21T10:23:51;9.60;99.90
34646;DHT22;20857;47.808;12.482;2024-02-21T10:26:18;9.50;99.90
34646;DHT22;20857;47.808;12.482;2024-02-21T10:28:44;9.40;99.90
34646;DHT22;20857;47.808;12.482;2024-02-21T10:31:24;9.20;99.90
34646;DHT22;20857;47.808;12.482;2024-02-21T10:33:55;9.00;99.90
34646;DHT22;20857;47.808;12.482;2024-02-21T10:36:20;9.00;99.90
34646;DHT22;20857;47.808;12.482;2024-02-21T10:38:46;8.90;99.90
34646;DHT22;20857;47.808;12.482;2024-02-21T10:41:14;9.10;99.90
34646;DHT22;20857;47.808;12.482;2024-02-21T10:43:41;9.10;99.90
34646;DHT22;20857;47.808;12.482;2024-02-21T10:46:07;9.20;99.90
34646;DHT22;20857;47.808;12.482;2024-02-21T10:48:42;9.50;99.90
34646;DHT22;20857;47.808;12.482;2024-02-21T10:51:19;9.70;99.90
34646;DHT22;20857;47.808;12.482;2024-02-21T10:56:31;10.00;99.90
34646;DHT22;20857;47.808;12.482;2024-02-21T10:59:01;10.20;99.90
34646;DHT22;20857;47.808;12.482;2024-02-21T11:01:28;10.30;99.90
34646;DHT22;20857;47.808;12.482;2024-02-21T11:03:58;10.50;99.90
34646;DHT22;20857;47.808;12.482;2024-02-21T11:06:35;10.70;99.90
34646;DHT22;20857;47.808;12.482;2024-02-21T11:09:08;10.80;99.60
34646;DHT22;20857;47.808;12.482;2024-02-21T11:11:38;10.90;99.50
34646;DHT22;20857;47.808;12.482;2024-02-21T11:14:06;11.10;99.50
34646;DHT22;20857;47.808;12.482;2024-02-21T11:16:39;11.30;99.40
34646;DHT22;20857;47.808;12.482;2024-02-21T11:21:35;11.60;98.50
34646;DHT22;20857;47.808;12.482;2024-02-21T11:24:04;11.90;98.90
34646;DHT22;20857;47.808;12.482;2024-02-21T11:26:30;12.10;98.40
34646;DHT22;20857;47.808;12.482;2024-02-21T11:29:02;12.20;98.30
34646;DHT22;20857;47.808;12.482;2024-02-21T11:31:43;12.30;98.20
34646;DHT22;20857;47.808;12.482;2024-02-21T11:34:12;12.30;97.40
34646;DHT22;20857;47.808;12.482;2024-02-21T11:36:51;12.40;97.30
34646;DHT22;20857;47.808;12.482;2024-02-21T11:39:24;12.30;97.50
34646;DHT22;20857;47.808;12.482;2024-02-21T11:42:07;12.40;98.80
34646;DHT22;20857;47.808;12.482;2024-02-21T11:44:38;12.60;98.30
34646;DHT22;20857;47.808;12.482;2024-02-21T11:47:05;12.80;97.40
34646;DHT22;20857;47.808;12.482;2024-02-21T11:49:37;12.90;97.60
34646;DHT22;20857;47.808;12.482;2024-02-21T11:52:06;13.10;97.60
34646;DHT22;20857;47.808;12.482;2024-02-21T11:54:33;13.10;96.70
34646;DHT22;20857;47.808;12.482;2024-02-21T11:56:59;13.10;97.60
34646;DHT22;20857;47.808;12.482;2024-02-21T11:59:25;13.10;97.30
34646;DHT22;20857;47.808;12.482;2024-02-21T12:01:53;13.00;97.70
34646;DHT22;20857;47.808;12.482;2024-02-21T12:04:21;13.10;97.70
34646;DHT22;20857;47.808;12.482;2024-02-21T12:06:49;13.10;96.00
34646;DHT22;20857;47.808;12.482;2024-02-21T12:09:16;13.20;97.50
34646;DHT22;20857;47.808;12.482;2024-02-21T12:11:42;13.40;97.70
34646;DHT22;20857;47.808;12.482;2024-02-21T12:14:08;13.50;97.90
34646;DHT22;20857;47.808;12.482;2024-02-21T12:16:35;13.40;96.60
34646;DHT22;20857;47.808;12.482;2024-02-21T12:19:03;13.40;95.90
34646;DHT22;20857;47.808;12.482;2024-02-21T12:21:34;13.40;96.80
34646;DHT22;20857;47.808;12.482;2024-02-21T12:24:13;13.30;96.70
34646;DHT22;20857;47.808;12.482;2024-02-21T12:26:40;13.40;96.80
34646;DHT22;20857;47.808;12.482;2024-02-21T12:29:05;13.50;96.40
34646;DHT22;20857;47.808;12.482;2024-02-21T12:31:31;13.60;96.30
34646;DHT22;20857;47.808;12.482;2024-02-21T12:33:57;13.60;96.40
34646;DHT22;20857;47.808;12.482;2024-02-21T12:36:22;13.60;96.50
34646;DHT22;20857;47.808;12.482;2024-02-21T12:38:49;13.60;95.90
34646;DHT22;20857;47.808;12.482;2024-02-21T12:41:15;13.70;96.40
34646;DHT22;20857;47.808;12.482;2024-02-21T12:43:40;13.60;94.30
34646;DHT22;20857;47.808;12.482;2024-02-21T12:46:07;13.70;95.20
34646;DHT22;20857;47.808;12.482;2024-02-21T12:48:33;13.70;94.90
34646;DHT22;20857;47.808;12.482;2024-02-21T12:50:59;13.80;95.00
34646;DHT22;20857;47.808;12.482;2024-02-21T12:53:25;13.90;94.40
34646;DHT22;20857;47.808;12.482;2024-02-21T12:55:50;14.00;93.90
34646;DHT22;20857;47.808;12.482;2024-02-21T12:58:16;13.90;92.70
34646;DHT22;20857;47.808;12.482;2024-02-21T13:00:42;13.90;92.70
34646;DHT22;20857;47.808;12.482;2024-02-21T13:03:08;14.00;93.60
34646;DHT22;20857;47.808;12.482;2024-02-21T13:05:37;14.00;92.60
34646;DHT22;20857;47.808;12.482;2024-02-21T13:08:02;13.90;93.30
34646;DHT22;20857;47.808;12.482;2024-02-21T13:10:28;13.90;92.80
34646;DHT22;20857;47.808;12.482;2024-02-21T13:12:53;13.90;94.00
34646;DHT22;20857;47.808;12.482;2024-02-21T13:15:20;13.90;92.50
34646;DHT22;20857;47.808;12.482;2024-02-21T13:17:45;14.10;93.10
34646;DHT22;20857;47.808;12.482;2024-02-21T13:20:11;14.20;93.40
34646;DHT22;20857;47.808;12.482;2024-02-21T13:22:37;14.30;92.90
34646;DHT22;20857;47.808;12.482;2024-02-21T13:25:04;14.20;93.20
34646;DHT22;20857;47.808;12.482;2024-02-21T13:27:30;14.20;93.40
34646;DHT22;20857;47.808;12.482;2024-02-21T13:29:56;14.10;93.70
34646;DHT22;20857;47.808;12.482;2024-02-21T13:32:21;14.00;93.60
34646;DHT22;20857;47.808;12.482;2024-02-21T13:34:47;14.00;93.10
34646;DHT22;20857;47.808;12.482;2024-02-21T13:37:13;14.00;92.90
34646;DHT22;20857;47.808;12.482;2024-02-21T13:39:40;13.90;94.10
34646;DHT22;20857;47.808;12.482;2024-02-21T13:42:06;13.90;94.60
34646;DHT22;20857;47.808;12.482;2024-02-21T13:44:34;13.90;93.30
34646;DHT22;20857;47.808;12.482;2024-02-21T13:47:01;13.90;93.80
34646;DHT22;20857;47.808;12.482;2024-02-21T13:49:27;13.80;93.90
34646;DHT22;20857;47.808;12.482;2024-02-21T13:51:54;14.10;93.00
34646;DHT22;20857;47.808;12.482;2024-02-21T13:54:20;14.10;92.80
34646;DHT22;20857;47.808;12.482;2024-02-21T13:56:46;14.10;93.30
34646;DHT22;20857;47.808;12.482;2024-02-21T13:59:12;14.20;93.50
34646;DHT22;20857;47.808;12.482;2024-02-21T14:01:41;14.20;93.80
34646;DHT22;20857;47.808;12.482;2024-02-21T14:04:06;14.30;93.60
34646;DHT22;20857;47.808;12.482;2024-02-21T14:06:32;14.40;93.70
34646;DHT22;20857;47.808;12.482;2024-02-21T14:08:58;14.30;93.50
34646;DHT22;20857;47.808;12.482;2024-02-21T14:11:23;14.40;94.00
34646;DHT22;20857;47.808;12.482;2024-02-21T14:13:49;14.40;94.60
34646;DHT22;20857;47.808;12.482;2024-02-21T14:16:15;14.50;92.60
34646;DHT22;20857;47.808;12.482;2024-02-21T14:18:42;14.50;93.00
34646;DHT22;20857;47.808;12.482;2024-02-21T14:21:08;14.50;92.70
34646;DHT22;20857;47.808;12.482;2024-02-21T14:23:39;14.40;92.20
34646;DHT22;20857;47.808;12.482;2024-02-21T14:26:05;14.40;92.80
34646;DHT22;20857;47.808;12.482;2024-02-21T14:28:32;14.50;93.20
34646;DHT22;20857;47.808;12.482;2024-02-21T14:30:59;14.60;93.50
34646;DHT22;20857;47.808;12.482;2024-02-21T14:33:28;14.60;91.70
34646;DHT22;20857;47.808;12.482;2024-02-21T14:35:54;14.60;92.80
34646;DHT22;20857;47.808;12.482;2024-02-21T14:38:20;14.60;92.70
34646;DHT22;20857;47.808;12.482;2024-02-21T14:40:45;14.70;93.70
34646;DHT22;20857;47.808;12.482;2024-02-21T14:43:11;14.60;93.60
34646;DHT22;20857;47.808;12.482;2024-02-21T14:45:37;14.40;92.70
34646;DHT22;20857;47.808;12.482;2024-02-21T14:48:06;14.40;93.00
34646;DHT22;20857;47.808;12.482;2024-02-21T14:50:32;14.30;92.50
34646;DHT22;20857;47.808;12.482;2024-02-21T14:52:58;14.30;92.50
34646;DHT22;20857;47.808;12.482;2024-02-21T14:55:23;14.20;92.50
34646;DHT22;20857;47.808;12.482;2024-02-21T14:57:49;14.10;92.90
34646;DHT22;20857;47.808;12.482;2024-02-21T15:00:16;13.90;94.00
34646;DHT22;20857;47.808;12.482;2024-02-21T15:02:41;13.70;94.10
34646;DHT22;20857;47.808;12.482;2024-02-21T15:05:08;13.60;94.00
34646;DHT22;20857;47.808;12.482;2024-02-21T15:07:34;13.50;93.60
34646;DHT22;20857;47.808;12.482;2024-02-21T15:10:00;13.40;94.20
34646;DHT22;20857;47.808;12.482;2024-02-21T15:12:26;13.30;94.70
34646;DHT22;20857;47.808;12.482;2024-02-21T15:14:52;13.30;94.90
34646;DHT22;20857;47.808;12.482;2024-02-21T15:17:18;13.20;94.80
34646;DHT22;20857;47.808;12.482;2024-02-21T15:19:44;13.20;94.10
34646;DHT22;20857;47.808;12.482;2024-02-21T15:22:11;13.20;93.90
34646;DHT22;20857;47.808;12.482;2024-02-21T15:24:38;13.10;93.90
34646;DHT22;20857;47.808;12.482;2024-02-21T15:27:04;13.00;94.70
34646;DHT22;20857;47.808;12.482;2024-02-21T15:29:29;12.80;95.10
34646;DHT22;20857;47.808;12.482;2024-02-21T15:31:55;12.80;95.00
34646;DHT22;20857;47.808;12.482;2024-02-21T15:34:21;12.80;95.10
34646;DHT22;20857;47.808;12.482;2024-02-21T15:36:47;12.70;95.00